sensor_id;sensor_type;location;lat;lon;timestamp;temperature;humidity
2391;DHT22;22957;50.824;4.360;2022-10-13T00:01:25;15.70;99.90
2391;DHT22;22957;50.824;4.360;2022-10-13T00:03:51;15.50;99.90
2391;DHT22;22957;50.824;4.360;2022-10-13T00:06:18;15.50;99.90
2391;DHT22;22957;50.824;4.360;2022-10-13T00:08:44;15.50;99.90
2391;DHT22;22957;50.824;4.360;2022-10-13T00:11:20;15.80;99.90
2391;DHT22;22957;50.824;4.360;2022-10-13T00:13:47;15.80;99.90
2391;DHT22;22957;50.824;4.360;2022-10-13T00:16:16;15.70;99.90
2391;DHT22;22957;50.824;4.360;2022-10-13T00:18:42;15.60;99.90
2391;DHT22;22957;50.824;4.360;2022-10-13T00:21:11;15.50;99.90
2391;DHT22;22957;50.824;4.360;2022-10-13T00:23:38;15.60;99.90
2391;DHT22;22957;50.824;4.360;2022-10-13T00:26:07;15.50;99.90
2391;DHT22;22957;50.824;4.360;2022-10-13T00:28:33;15.40;99.90
2391;DHT22;22957;50.824;4.360;2022-10-13T00:30:59;15.50;99.90
2391;DHT22;22957;50.824;4.360;2022-10-13T00:33:25;15.60;99.90
2391;DHT22;22957;50.824;4.360;2022-10-13T00:35:51;15.50;99.90
2391;DHT22;22957;50.824;4.360;2022-10-13T00:38:18;15.40;99.90
2391;DHT22;22957;50.824;4.360;2022-10-13T00:40:51;15.40;99.90
2391;DHT22;22957;50.824;4.360;2022-10-13T00:43:26;15.60;99.90
2391;DHT22;22957;50.824;4.360;2022-10-13T00:45:52;15.60;99.90
2391;DHT22;22957;50.824;4.360;2022-10-13T00:48:24;15.60;99.90
2391;DHT22;22957;50.824;4.360;2022-10-13T00:50:52;15.80;99.90
2391;DHT22;22957;50.824;4.360;2022-10-13T00:53:20;15.50;99.90
2391;DHT22;22957;50.824;4.360;2022-10-13T00:55:47;15.50;99.90
2391;DHT22;22957;50.824;4.360;2022-10-13T00:58:15;15.60;99.90
2391;DHT22;22957;50.824;4.360;2022-10-13T01:00:46;15.60;99.90
2391;DHT22;22957;50.824;4.360;2022-10-13T01:03:12;15.60;99.90
2391;DHT22;22957;50.824;4.360;2022-10-13T01:05:40;15.40;99.90
2391;DHT22;22957;50.824;4.360;2022-10-13T01:08:07;15.40;99.90
2391;DHT22;22957;50.824;4.360;2022-10-13T01:11:05;15.70;99.90
2391;DHT22;22957;50.824;4.360;2022-10-13T01:13:55;15.90;99.90
2391;DHT22;22957;50.824;4.360;2022-10-13T01:19:37;15.70;99.90
2391;DHT22;22957;50.824;4.360;2022-10-13T01:24:41;15.70;99.90
2391;DHT22;22957;50.824;4.360;2022-10-13T01:30:06;15.40;99.90
2391;DHT22;22957;50.824;4.360;2022-10-13T01:40:26;15.70;99.90
2391;DHT22;22957;50.824;4.360;2022-10-13T01:45:28;15.50;99.90
2391;DHT22;22957;50.824;4.360;2022-10-13T01:47:56;15.90;99.90
2391;DHT22;22957;50.824;4.360;2022-10-13T01:50:23;15.60;99.90
2391;DHT22;22957;50.824;4.360;2022-10-13T01:52:49;15.30;99.90
2391;DHT22;22957;50.824;4.360;2022-10-13T01:55:16;15.70;99.90
2391;DHT22;22957;50.824;4.360;2022-10-13T01:57:43;15.60;99.90
2391;DHT22;22957;50.824;4.360;2022-10-13T02:00:12;15.30;99.90
2391;DHT22;22957;50.824;4.360;2022-10-13T02:11:06;15.40;99.90
2391;DHT22;22957;50.824;4.360;2022-10-13T02:13:35;15.20;99.90
2391;DHT22;22957;50.824;4.360;2022-10-13T02:16:04;15.40;99.90
2391;DHT22;22957;50.824;4.360;2022-10-13T02:18:34;15.40;99.90
2391;DHT22;22957;50.824;4.360;2022-10-13T02:21:01;15.00;99.90
2391;DHT22;22957;50.824;4.360;2022-10-13T02:23:28;14.90;99.90
2391;DHT22;22957;50.824;4.360;2022-10-13T02:25:58;15.50;99.90
2391;DHT22;22957;50.824;4.360;2022-10-13T02:28:25;15.40;99.90
2391;DHT22;22957;50.824;4.360;2022-10-13T02:30:51;15.10;99.90
2391;DHT22;22957;50.824;4.360;2022-10-13T02:33:17;15.20;99.90
2391;DHT22;22957;50.824;4.360;2022-10-13T02:35:43;15.20;99.90
2391;DHT22;22957;50.824;4.360;2022-10-13T02:38:09;15.10;99.90
2391;DHT22;22957;50.824;4.360;2022-10-13T02:40:35;15.30;99.90
2391;DHT22;22957;50.824;4.360;2022-10-13T02:43:01;14.90;99.90
2391;DHT22;22957;50.824;4.360;2022-10-13T02:45:27;14.90;99.90
2391;DHT22;22957;50.824;4.360;2022-10-13T02:47:52;15.20;99.90
2391;DHT22;22957;50.824;4.360;2022-10-13T02:50:18;15.10;99.90
2391;DHT22;22957;50.824;4.360;2022-10-13T02:52:44;15.30;99.90
2391;DHT22;22957;50.824;4.360;2022-10-13T02:55:09;15.00;99.90
2391;DHT22;22957;50.824;4.360;2022-10-13T02:57:35;15.00;99.90
2391;DHT22;22957;50.824;4.360;2022-10-13T03:00:01;14.90;99.90
2391;DHT22;22957;50.824;4.360;2022-10-13T03:02:27;15.20;99.90
2391;DHT22;22957;50.824;4.360;2022-10-13T03:04:53;15.20;99.90
2391;DHT22;22957;50.824;4.360;2022-10-13T03:07:19;15.10;99.90
2391;DHT22;22957;50.824;4.360;2022-10-13T03:09:45;15.20;99.90
2391;DHT22;22957;50.824;4.360;2022-10-13T03:12:11;15.10;99.90
2391;DHT22;22957;50.824;4.360;2022-10-13T03:14:36;15.10;99.90
2391;DHT22;22957;50.824;4.360;2022-10-13T03:17:02;14.90;99.90
2391;DHT22;22957;50.824;4.360;2022-10-13T03:19:28;15.60;99.90
2391;DHT22;22957;50.824;4.360;2022-10-13T03:21:54;15.10;99.90
2391;DHT22;22957;50.824;4.360;2022-10-13T03:24:19;15.50;99.90
2391;DHT22;22957;50.824;4.360;2022-10-13T03:26:45;15.20;99.90
2391;DHT22;22957;50.824;4.360;2022-10-13T03:29:15;15.00;99.90
2391;DHT22;22957;50.824;4.360;2022-10-13T03:31:41;14.60;99.90
2391;DHT22;22957;50.824;4.360;2022-10-13T03:34:11;15.20;99.90
2391;DHT22;22957;50.824;4.360;2022-10-13T03:36:37;15.20;99.90
2391;DHT22;22957;50.824;4.360;2022-10-13T03:39:03;15.30;99.90
2391;DHT22;22957;50.824;4.360;2022-10-13T03:41:29;15.10;99.90
2391;DHT22;22957;50.824;4.360;2022-10-13T03:43:54;15.10;99.90
2391;DHT22;22957;50.824;4.360;2022-10-13T03:46:21;15.10;99.90
2391;DHT22;22957;50.824;4.360;2022-10-13T03:48:49;14.90;99.90
2391;DHT22;22957;50.824;4.360;2022-10-13T03:51:17;14.80;99.90
2391;DHT22;22957;50.824;4.360;2022-10-13T03:53:44;14.90;99.90
2391;DHT22;22957;50.824;4.360;2022-10-13T03:56:15;15.40;99.90
2391;DHT22;22957;50.824;4.360;2022-10-13T03:58:40;15.20;99.90
2391;DHT22;22957;50.824;4.360;2022-10-13T04:01:07;14.90;99.90
2391;DHT22;22957;50.824;4.360;2022-10-13T04:03:33;14.90;99.90
2391;DHT22;22957;50.824;4.360;2022-10-13T04:06:00;14.90;99.90
2391;DHT22;22957;50.824;4.360;2022-10-13T04:08:28;15.00;99.90
2391;DHT22;22957;50.824;4.360;2022-10-13T04:11:02;15.30;99.90
2391;DHT22;22957;50.824;4.360;2022-10-13T04:13:27;15.00;99.90
2391;DHT22;22957;50.824;4.360;2022-10-13T04:15:53;15.00;99.90
2391;DHT22;22957;50.824;4.360;2022-10-13T04:18:19;15.10;99.90
2391;DHT22;22957;50.824;4.360;2022-10-13T04:20:45;15.10;99.90
2391;DHT22;22957;50.824;4.360;2022-10-13T04:23:11;15.30;99.90
2391;DHT22;22957;50.824;4.360;2022-10-13T04:25:37;15.40;99.90
2391;DHT22;22957;50.824;4.360;2022-10-13T04:28:04;15.60;99.90
2391;DHT22;22957;50.824;4.360;2022-10-13T04:30:32;15.30;99.90
2391;DHT22;22957;50.824;4.360;2022-10-13T04:32:58;15.60;99.90
2391;DHT22;22957;50.824;4.360;2022-10-13T04:35:24;15.60;99.90
2391;DHT22;22957;50.824;4.360;2022-10-13T04:37:49;15.60;99.90
2391;DHT22;22957;50.824;4.360;2022-10-13T04:40:15;15.60;99.90
2391;DHT22;22957;50.824;4.360;2022-10-13T04:42:41;15.30;99.90
2391;DHT22;22957;50.824;4.360;2022-10-13T04:45:07;15.50;99.90
2391;DHT22;22957;50.824;4.360;2022-10-13T04:47:34;15.40;99.90
2391;DHT22;22957;50.824;4.360;2022-10-13T04:50:01;15.60;99.90
2391;DHT22;22957;50.824;4.360;2022-10-13T04:52:27;15.40;99.90
2391;DHT22;22957;50.824;4.360;2022-10-13T04:54:52;15.40;99.90
2391;DHT22;22957;50.824;4.360;2022-10-13T04:57:18;15.40;99.90
2391;DHT22;22957;50.824;4.360;2022-10-13T04:59:44;15.30;99.90
2391;DHT22;22957;50.824;4.360;2022-10-13T05:02:10;15.40;99.90
2391;DHT22;22957;50.824;4.360;2022-10-13T05:04:35;15.30;99.90
2391;DHT22;22957;50.824;4.360;2022-10-13T05:07:01;15.50;99.90
2391;DHT22;22957;50.824;4.360;2022-10-13T05:09:27;15.00;99.90
2391;DHT22;22957;50.824;4.360;2022-10-13T05:11:53;15.60;99.90
2391;DHT22;22957;50.824;4.360;2022-10-13T05:14:20;15.70;99.90
2391;DHT22;22957;50.824;4.360;2022-10-13T05:16:46;15.60;99.90
2391;DHT22;22957;50.824;4.360;2022-10-13T05:19:13;15.40;99.90
2391;DHT22;22957;50.824;4.360;2022-10-13T05:21:38;15.30;99.90
2391;DHT22;22957;50.824;4.360;2022-10-13T05:24:06;15.10;99.90
2391;DHT22;22957;50.824;4.360;2022-10-13T05:26:37;15.80;99.90
2391;DHT22;22957;50.824;4.360;2022-10-13T05:29:03;15.80;99.90
2391;DHT22;22957;50.824;4.360;2022-10-13T05:31:30;15.60;99.90
2391;DHT22;22957;50.824;4.360;2022-10-13T05:33:58;15.40;99.90
2391;DHT22;22957;50.824;4.360;2022-10-13T05:36:33;15.40;99.90
2391;DHT22;22957;50.824;4.360;2022-10-13T05:39:01;15.50;99.90
2391;DHT22;22957;50.824;4.360;2022-10-13T05:41:29;15.60;99.90
2391;DHT22;22957;50.824;4.360;2022-10-13T05:44:00;15.50;99.90
2391;DHT22;22957;50.824;4.360;2022-10-13T05:46:27;15.70;99.90
2391;DHT22;22957;50.824;4.360;2022-10-13T05:48:52;15.20;99.90
2391;DHT22;22957;50.824;4.360;2022-10-13T05:51:23;15.60;99.90
2391;DHT22;22957;50.824;4.360;2022-10-13T05:54:03;15.50;99.90
2391;DHT22;22957;50.824;4.360;2022-10-13T05:56:36;15.60;99.90
2391;DHT22;22957;50.824;4.360;2022-10-13T05:59:06;15.50;99.90
2391;DHT22;22957;50.824;4.360;2022-10-13T06:01:35;15.10;99.90
2391;DHT22;22957;50.824;4.360;2022-10-13T06:04:05;15.40;99.90
2391;DHT22;22957;50.824;4.360;2022-10-13T06:06:32;15.60;99.90
2391;DHT22;22957;50.824;4.360;2022-10-13T06:08:59;15.00;99.90
2391;DHT22;22957;50.824;4.360;2022-10-13T06:11:26;15.40;99.90
2391;DHT22;22957;50.824;4.360;2022-10-13T06:13:51;15.60;99.90
2391;DHT22;22957;50.824;4.360;2022-10-13T06:16:17;15.40;99.90
2391;DHT22;22957;50.824;4.360;2022-10-13T06:18:43;15.50;99.90
2391;DHT22;22957;50.824;4.360;2022-10-13T06:21:08;15.40;99.90
2391;DHT22;22957;50.824;4.360;2022-10-13T06:23:36;15.50;99.90
2391;DHT22;22957;50.824;4.360;2022-10-13T06:26:15;15.50;99.90
2391;DHT22;22957;50.824;4.360;2022-10-13T06:28:43;15.20;99.90
2391;DHT22;22957;50.824;4.360;2022-10-13T06:31:09;15.40;99.90
2391;DHT22;22957;50.824;4.360;2022-10-13T06:33:34;15.50;99.90
2391;DHT22;22957;50.824;4.360;2022-10-13T06:36:02;15.30;99.90
2391;DHT22;22957;50.824;4.360;2022-10-13T06:38:28;15.30;99.90
2391;DHT22;22957;50.824;4.360;2022-10-13T06:40:54;15.30;99.90
2391;DHT22;22957;50.824;4.360;2022-10-13T06:43:23;15.30;99.90
2391;DHT22;22957;50.824;4.360;2022-10-13T06:45:49;15.30;99.90
2391;DHT22;22957;50.824;4.360;2022-10-13T06:48:14;15.70;99.90
2391;DHT22;22957;50.824;4.360;2022-10-13T06:50:40;15.50;99.90
2391;DHT22;22957;50.824;4.360;2022-10-13T06:53:06;15.50;99.90
2391;DHT22;22957;50.824;4.360;2022-10-13T06:55:31;15.40;99.90
2391;DHT22;22957;50.824;4.360;2022-10-13T06:57:57;15.70;99.90
2391;DHT22;22957;50.824;4.360;2022-10-13T07:00:23;15.60;99.90
2391;DHT22;22957;50.824;4.360;2022-10-13T07:02:50;16.00;99.90
2391;DHT22;22957;50.824;4.360;2022-10-13T07:05:16;16.10;99.90
2391;DHT22;22957;50.824;4.360;2022-10-13T07:07:42;15.90;99.90
2391;DHT22;22957;50.824;4.360;2022-10-13T07:10:07;16.00;99.90
2391;DHT22;22957;50.824;4.360;2022-10-13T07:12:33;15.80;99.90
2391;DHT22;22957;50.824;4.360;2022-10-13T07:14:59;16.10;99.90
2391;DHT22;22957;50.824;4.360;2022-10-13T07:17:25;15.90;99.90
2391;DHT22;22957;50.824;4.360;2022-10-13T07:19:50;15.80;99.90
2391;DHT22;22957;50.824;4.360;2022-10-13T07:22:17;16.10;99.90
2391;DHT22;22957;50.824;4.360;2022-10-13T07:24:42;16.00;99.90
2391;DHT22;22957;50.824;4.360;2022-10-13T07:27:08;15.80;99.90
2391;DHT22;22957;50.824;4.360;2022-10-13T07:29:34;15.60;99.90
2391;DHT22;22957;50.824;4.360;2022-10-13T07:32:00;15.50;99.90
2391;DHT22;22957;50.824;4.360;2022-10-13T07:34:26;15.80;99.90
2391;DHT22;22957;50.824;4.360;2022-10-13T07:36:52;16.00;99.90
2391;DHT22;22957;50.824;4.360;2022-10-13T07:39:17;15.90;99.90
2391;DHT22;22957;50.824;4.360;2022-10-13T07:41:43;15.80;99.90
2391;DHT22;22957;50.824;4.360;2022-10-13T07:44:09;15.60;99.90
2391;DHT22;22957;50.824;4.360;2022-10-13T07:46:34;15.40;99.90
2391;DHT22;22957;50.824;4.360;2022-10-13T07:49:00;15.80;99.90
2391;DHT22;22957;50.824;4.360;2022-10-13T07:51:26;15.80;99.90
2391;DHT22;22957;50.824;4.360;2022-10-13T07:53:52;15.60;99.90
2391;DHT22;22957;50.824;4.360;2022-10-13T07:56:17;15.80;99.90
2391;DHT22;22957;50.824;4.360;2022-10-13T07:58:45;15.60;99.90
2391;DHT22;22957;50.824;4.360;2022-10-13T08:01:12;15.50;99.90
2391;DHT22;22957;50.824;4.360;2022-10-13T08:03:39;15.70;99.90
2391;DHT22;22957;50.824;4.360;2022-10-13T08:06:06;15.60;99.90
2391;DHT22;22957;50.824;4.360;2022-10-13T08:08:33;15.50;99.90
2391;DHT22;22957;50.824;4.360;2022-10-13T08:11:03;15.60;99.90
2391;DHT22;22957;50.824;4.360;2022-10-13T08:13:31;15.70;99.90
2391;DHT22;22957;50.824;4.360;2022-10-13T08:15:59;15.70;99.90
2391;DHT22;22957;50.824;4.360;2022-10-13T08:18:25;15.70;99.90
2391;DHT22;22957;50.824;4.360;2022-10-13T08:20:51;15.50;99.90
2391;DHT22;22957;50.824;4.360;2022-10-13T08:23:17;15.90;99.90
2391;DHT22;22957;50.824;4.360;2022-10-13T08:25:43;16.00;99.90
2391;DHT22;22957;50.824;4.360;2022-10-13T08:28:18;16.20;99.90
2391;DHT22;22957;50.824;4.360;2022-10-13T08:30:44;16.10;99.90
2391;DHT22;22957;50.824;4.360;2022-10-13T08:33:10;16.40;99.90
2391;DHT22;22957;50.824;4.360;2022-10-13T08:35:36;16.50;99.90
2391;DHT22;22957;50.824;4.360;2022-10-13T08:38:02;16.60;99.90
2391;DHT22;22957;50.824;4.360;2022-10-13T08:40:28;16.90;99.90
2391;DHT22;22957;50.824;4.360;2022-10-13T08:42:54;17.00;99.90
2391;DHT22;22957;50.824;4.360;2022-10-13T08:45:29;17.00;99.90
2391;DHT22;22957;50.824;4.360;2022-10-13T08:48:05;16.80;99.90
2391;DHT22;22957;50.824;4.360;2022-10-13T08:50:38;16.90;99.90
2391;DHT22;22957;50.824;4.360;2022-10-13T08:53:17;17.20;99.90
2391;DHT22;22957;50.824;4.360;2022-10-13T08:55:51;16.80;99.90
2391;DHT22;22957;50.824;4.360;2022-10-13T08:58:31;16.40;99.90
2391;DHT22;22957;50.824;4.360;2022-10-13T09:01:11;16.50;99.90
2391;DHT22;22957;50.824;4.360;2022-10-13T09:06:48;16.70;99.90
2391;DHT22;22957;50.824;4.360;2022-10-13T09:09:16;17.10;99.90
2391;DHT22;22957;50.824;4.360;2022-10-13T09:11:46;17.20;99.90
2391;DHT22;22957;50.824;4.360;2022-10-13T09:14:23;17.20;99.90
2391;DHT22;22957;50.824;4.360;2022-10-13T09:16:50;17.30;99.90
2391;DHT22;22957;50.824;4.360;2022-10-13T09:24:42;17.40;99.90
2391;DHT22;22957;50.824;4.360;2022-10-13T09:27:40;17.60;99.90
2391;DHT22;22957;50.824;4.360;2022-10-13T09:33:05;17.20;99.90
2391;DHT22;22957;50.824;4.360;2022-10-13T09:35:32;17.20;99.90
2391;DHT22;22957;50.824;4.360;2022-10-13T09:40:39;17.60;99.90
2391;DHT22;22957;50.824;4.360;2022-10-13T09:43:28;17.60;99.90
2391;DHT22;22957;50.824;4.360;2022-10-13T09:45:55;17.40;99.90
2391;DHT22;22957;50.824;4.360;2022-10-13T09:48:34;17.30;99.90
2391;DHT22;22957;50.824;4.360;2022-10-13T09:51:02;17.30;99.90
2391;DHT22;22957;50.824;4.360;2022-10-13T09:56:24;17.80;99.90
2391;DHT22;22957;50.824;4.360;2022-10-13T09:59:13;17.70;99.90
2391;DHT22;22957;50.824;4.360;2022-10-13T10:01:44;18.00;99.90
2391;DHT22;22957;50.824;4.360;2022-10-13T10:04:14;18.00;99.90
2391;DHT22;22957;50.824;4.360;2022-10-13T10:06:44;18.10;99.90
2391;DHT22;22957;50.824;4.360;2022-10-13T10:11:54;18.00;99.90
2391;DHT22;22957;50.824;4.360;2022-10-13T10:30:42;17.40;99.90
2391;DHT22;22957;50.824;4.360;2022-10-13T10:33:28;17.70;99.90
2391;DHT22;22957;50.824;4.360;2022-10-13T10:55:42;16.20;99.90
2391;DHT22;22957;50.824;4.360;2022-10-13T11:04:43;16.20;99.90
2391;DHT22;22957;50.824;4.360;2022-10-13T11:28:50;15.80;99.90
2391;DHT22;22957;50.824;4.360;2022-10-13T11:31:48;15.70;99.90
2391;DHT22;22957;50.824;4.360;2022-10-13T11:34:30;16.00;99.90
2391;DHT22;22957;50.824;4.360;2022-10-13T11:36:59;16.00;99.90
2391;DHT22;22957;50.824;4.360;2022-10-13T11:49:58;16.70;99.90
2391;DHT22;22957;50.824;4.360;2022-10-13T11:55:44;16.90;99.90
2391;DHT22;22957;50.824;4.360;2022-10-13T11:58:24;17.10;99.90
2391;DHT22;22957;50.824;4.360;2022-10-13T12:01:00;16.70;99.90
2391;DHT22;22957;50.824;4.360;2022-10-13T12:03:33;17.30;99.90
2391;DHT22;22957;50.824;4.360;2022-10-13T12:06:30;17.40;99.90
2391;DHT22;22957;50.824;4.360;2022-10-13T12:09:01;17.00;99.90
2391;DHT22;22957;50.824;4.360;2022-10-13T12:11:31;16.70;99.90
2391;DHT22;22957;50.824;4.360;2022-10-13T12:13:59;16.70;99.90
2391;DHT22;22957;50.824;4.360;2022-10-13T12:16:26;16.70;99.90
2391;DHT22;22957;50.824;4.360;2022-10-13T12:18:54;16.80;99.90
2391;DHT22;22957;50.824;4.360;2022-10-13T12:21:30;17.00;99.90
2391;DHT22;22957;50.824;4.360;2022-10-13T12:24:06;16.80;99.90
2391;DHT22;22957;50.824;4.360;2022-10-13T12:26:32;16.80;99.90
2391;DHT22;22957;50.824;4.360;2022-10-13T12:29:02;16.60;99.90
2391;DHT22;22957;50.824;4.360;2022-10-13T12:31:42;16.80;99.90
2391;DHT22;22957;50.824;4.360;2022-10-13T12:34:29;16.80;99.90
2391;DHT22;22957;50.824;4.360;2022-10-13T12:37:03;16.80;99.90
2391;DHT22;22957;50.824;4.360;2022-10-13T12:39:31;17.00;99.90
2391;DHT22;22957;50.824;4.360;2022-10-13T12:41:59;17.20;99.90
2391;DHT22;22957;50.824;4.360;2022-10-13T12:44:30;17.00;99.90
2391;DHT22;22957;50.824;4.360;2022-10-13T12:47:00;17.10;99.90
2391;DHT22;22957;50.824;4.360;2022-10-13T12:49:35;17.20;99.90
2391;DHT22;22957;50.824;4.360;2022-10-13T12:52:14;17.50;99.90
2391;DHT22;22957;50.824;4.360;2022-10-13T12:54:50;17.70;99.90
2391;DHT22;22957;50.824;4.360;2022-10-13T12:57:25;18.20;99.90
2391;DHT22;22957;50.824;4.360;2022-10-13T13:00:00;18.10;99.90
2391;DHT22;22957;50.824;4.360;2022-10-13T13:02:31;18.20;99.90
2391;DHT22;22957;50.824;4.360;2022-10-13T13:04:58;18.00;99.90
2391;DHT22;22957;50.824;4.360;2022-10-13T13:07:34;17.60;99.90
2391;DHT22;22957;50.824;4.360;2022-10-13T13:12:34;17.70;99.90
2391;DHT22;22957;50.824;4.360;2022-10-13T13:17:43;17.20;99.90
2391;DHT22;22957;50.824;4.360;2022-10-13T13:20:33;17.40;99.90
2391;DHT22;22957;50.824;4.360;2022-10-13T13:22:59;16.90;99.90
2391;DHT22;22957;50.824;4.360;2022-10-13T13:25:26;16.70;99.90
2391;DHT22;22957;50.824;4.360;2022-10-13T13:27:52;16.70;99.90
2391;DHT22;22957;50.824;4.360;2022-10-13T13:30:41;16.50;99.90
2391;DHT22;22957;50.824;4.360;2022-10-13T13:33:28;16.50;99.90
2391;DHT22;22957;50.824;4.360;2022-10-13T13:35:59;16.50;99.90
2391;DHT22;22957;50.824;4.360;2022-10-13T13:38:26;16.50;99.90
2391;DHT22;22957;50.824;4.360;2022-10-13T13:40:51;16.10;99.90
2391;DHT22;22957;50.824;4.360;2022-10-13T13:43:19;16.30;99.90
2391;DHT22;22957;50.824;4.360;2022-10-13T13:45:44;16.00;99.90
2391;DHT22;22957;50.824;4.360;2022-10-13T13:48:11;16.10;99.90
2391;DHT22;22957;50.824;4.360;2022-10-13T13:50:38;16.40;99.90
2391;DHT22;22957;50.824;4.360;2022-10-13T13:53:05;16.30;99.90
2391;DHT22;22957;50.824;4.360;2022-10-13T13:55:31;16.30;99.90
2391;DHT22;22957;50.824;4.360;2022-10-13T13:57:57;16.40;99.90
2391;DHT22;22957;50.824;4.360;2022-10-13T14:00:31;16.20;99.90
2391;DHT22;22957;50.824;4.360;2022-10-13T14:02:57;16.40;99.90
2391;DHT22;22957;50.824;4.360;2022-10-13T14:05:25;16.80;99.90
2391;DHT22;22957;50.824;4.360;2022-10-13T14:07:55;16.80;99.90
2391;DHT22;22957;50.824;4.360;2022-10-13T14:10:23;16.80;99.90
2391;DHT22;22957;50.824;4.360;2022-10-13T14:12:49;16.90;99.90
2391;DHT22;22957;50.824;4.360;2022-10-13T14:15:15;16.60;99.90
2391;DHT22;22957;50.824;4.360;2022-10-13T14:17:42;16.70;99.90
2391;DHT22;22957;50.824;4.360;2022-10-13T14:20:09;16.60;99.90
2391;DHT22;22957;50.824;4.360;2022-10-13T14:22:40;16.90;99.90
2391;DHT22;22957;50.824;4.360;2022-10-13T14:25:06;16.70;99.90
2391;DHT22;22957;50.824;4.360;2022-10-13T14:27:33;16.90;99.90
2391;DHT22;22957;50.824;4.360;2022-10-13T14:29:59;16.80;99.90
2391;DHT22;22957;50.824;4.360;2022-10-13T14:32:26;16.80;99.90
2391;DHT22;22957;50.824;4.360;2022-10-13T14:35:05;16.70;99.90
2391;DHT22;22957;50.824;4.360;2022-10-13T14:37:32;16.90;99.90
2391;DHT22;22957;50.824;4.360;2022-10-13T14:39:58;16.90;99.90
2391;DHT22;22957;50.824;4.360;2022-10-13T14:42:24;16.70;99.90
2391;DHT22;22957;50.824;4.360;2022-10-13T14:44:49;16.80;99.90
2391;DHT22;22957;50.824;4.360;2022-10-13T14:47:15;17.30;99.90
2391;DHT22;22957;50.824;4.360;2022-10-13T14:49:41;17.20;99.90
2391;DHT22;22957;50.824;4.360;2022-10-13T14:52:07;16.70;99.90
2391;DHT22;22957;50.824;4.360;2022-10-13T14:54:34;17.00;99.90
2391;DHT22;22957;50.824;4.360;2022-10-13T14:57:00;16.70;99.90
2391;DHT22;22957;50.824;4.360;2022-10-13T14:59:30;17.00;99.90
2391;DHT22;22957;50.824;4.360;2022-10-13T15:01:58;16.60;99.90
2391;DHT22;22957;50.824;4.360;2022-10-13T15:04:24;16.70;99.90
2391;DHT22;22957;50.824;4.360;2022-10-13T15:06:50;16.60;99.90
2391;DHT22;22957;50.824;4.360;2022-10-13T15:09:16;16.70;99.90
2391;DHT22;22957;50.824;4.360;2022-10-13T15:11:42;16.30;99.90
2391;DHT22;22957;50.824;4.360;2022-10-13T15:14:11;16.60;99.90
2391;DHT22;22957;50.824;4.360;2022-10-13T15:16:37;16.30;99.90
2391;DHT22;22957;50.824;4.360;2022-10-13T15:19:04;16.40;99.90
2391;DHT22;22957;50.824;4.360;2022-10-13T15:21:29;16.40;99.90
2391;DHT22;22957;50.824;4.360;2022-10-13T15:23:56;16.60;99.90
2391;DHT22;22957;50.824;4.360;2022-10-13T15:26:22;16.60;99.90
2391;DHT22;22957;50.824;4.360;2022-10-13T15:28:52;16.20;99.90
2391;DHT22;22957;50.824;4.360;2022-10-13T15:31:19;16.40;99.90
2391;DHT22;22957;50.824;4.360;2022-10-13T15:33:50;16.50;99.90
2391;DHT22;22957;50.824;4.360;2022-10-13T15:36:17;16.20;99.90
2391;DHT22;22957;50.824;4.360;2022-10-13T15:38:43;16.30;99.90
2391;DHT22;22957;50.824;4.360;2022-10-13T15:41:10;16.70;99.90
2391;DHT22;22957;50.824;4.360;2022-10-13T15:43:36;16.30;99.90
2391;DHT22;22957;50.824;4.360;2022-10-13T15:46:04;16.30;99.90
2391;DHT22;22957;50.824;4.360;2022-10-13T15:48:31;16.20;99.90
2391;DHT22;22957;50.824;4.360;2022-10-13T15:50:57;16.30;99.90
2391;DHT22;22957;50.824;4.360;2022-10-13T15:53:24;16.20;99.90
2391;DHT22;22957;50.824;4.360;2022-10-13T15:55:51;16.40;99.90
2391;DHT22;22957;50.824;4.360;2022-10-13T15:58:17;16.30;99.90
2391;DHT22;22957;50.824;4.360;2022-10-13T16:00:43;16.40;99.90
2391;DHT22;22957;50.824;4.360;2022-10-13T16:03:14;16.10;99.90
2391;DHT22;22957;50.824;4.360;2022-10-13T16:05:41;16.40;99.90
2391;DHT22;22957;50.824;4.360;2022-10-13T16:08:07;16.20;99.90
2391;DHT22;22957;50.824;4.360;2022-10-13T16:10:32;16.10;99.90
2391;DHT22;22957;50.824;4.360;2022-10-13T16:12:58;16.00;99.90
2391;DHT22;22957;50.824;4.360;2022-10-13T16:15:24;16.10;99.90
2391;DHT22;22957;50.824;4.360;2022-10-13T16:17:50;16.10;99.90
2391;DHT22;22957;50.824;4.360;2022-10-13T16:20:16;15.90;99.90
2391;DHT22;22957;50.824;4.360;2022-10-13T16:22:42;16.10;99.90
2391;DHT22;22957;50.824;4.360;2022-10-13T16:25:08;16.30;99.90
2391;DHT22;22957;50.824;4.360;2022-10-13T16:27:35;16.00;99.90
2391;DHT22;22957;50.824;4.360;2022-10-13T16:30:01;16.10;99.90
2391;DHT22;22957;50.824;4.360;2022-10-13T16:32:27;16.20;99.90
2391;DHT22;22957;50.824;4.360;2022-10-13T16:34:53;16.10;99.90
2391;DHT22;22957;50.824;4.360;2022-10-13T16:37:19;15.80;99.90
2391;DHT22;22957;50.824;4.360;2022-10-13T16:39:45;16.00;99.90
2391;DHT22;22957;50.824;4.360;2022-10-13T16:42:11;15.90;99.90
2391;DHT22;22957;50.824;4.360;2022-10-13T16:44:37;16.30;99.90
2391;DHT22;22957;50.824;4.360;2022-10-13T16:47:04;16.10;99.90
2391;DHT22;22957;50.824;4.360;2022-10-13T16:49:31;16.30;99.90
2391;DHT22;22957;50.824;4.360;2022-10-13T16:51:58;16.00;99.90
2391;DHT22;22957;50.824;4.360;2022-10-13T16:54:24;15.80;99.90
2391;DHT22;22957;50.824;4.360;2022-10-13T16:56:50;16.00;99.90
2391;DHT22;22957;50.824;4.360;2022-10-13T16:59:16;15.90;99.90
2391;DHT22;22957;50.824;4.360;2022-10-13T17:01:42;15.80;99.90
2391;DHT22;22957;50.824;4.360;2022-10-13T17:04:09;16.00;99.90
2391;DHT22;22957;50.824;4.360;2022-10-13T17:06:35;16.20;99.90
2391;DHT22;22957;50.824;4.360;2022-10-13T17:09:04;16.20;99.90
2391;DHT22;22957;50.824;4.360;2022-10-13T17:11:31;16.10;99.90
2391;DHT22;22957;50.824;4.360;2022-10-13T17:13:58;16.00;99.90
2391;DHT22;22957;50.824;4.360;2022-10-13T17:16:25;15.80;99.90
2391;DHT22;22957;50.824;4.360;2022-10-13T17:18:51;16.10;99.90
2391;DHT22;22957;50.824;4.360;2022-10-13T17:21:17;15.80;99.90
2391;DHT22;22957;50.824;4.360;2022-10-13T17:23:46;15.70;99.90
2391;DHT22;22957;50.824;4.360;2022-10-13T17:26:14;16.10;99.90
2391;DHT22;22957;50.824;4.360;2022-10-13T17:28:42;16.00;99.90
2391;DHT22;22957;50.824;4.360;2022-10-13T17:31:17;15.80;99.90
2391;DHT22;22957;50.824;4.360;2022-10-13T17:33:44;16.00;99.90
2391;DHT22;22957;50.824;4.360;2022-10-13T17:38:38;16.10;99.90
2391;DHT22;22957;50.824;4.360;2022-10-13T17:41:06;16.20;99.90
2391;DHT22;22957;50.824;4.360;2022-10-13T17:43:33;16.20;99.90
2391;DHT22;22957;50.824;4.360;2022-10-13T17:46:27;16.10;99.90
2391;DHT22;22957;50.824;4.360;2022-10-13T17:49:10;16.00;99.90
2391;DHT22;22957;50.824;4.360;2022-10-13T17:51:41;16.00;99.90
2391;DHT22;22957;50.824;4.360;2022-10-13T17:54:09;16.20;99.90
2391;DHT22;22957;50.824;4.360;2022-10-13T17:56:36;15.70;99.90
2391;DHT22;22957;50.824;4.360;2022-10-13T17:59:17;15.90;99.90
2391;DHT22;22957;50.824;4.360;2022-10-13T18:01:43;15.60;99.90
2391;DHT22;22957;50.824;4.360;2022-10-13T18:04:15;16.10;99.90
2391;DHT22;22957;50.824;4.360;2022-10-13T18:06:41;15.80;99.90